KSGR/SGR METAR and TAF weather

Enter ICAO airport designator
Station Type Date Time Source
KSGR METAR 2019/08/25 18:09 UTC NOAA

KSGR 251809Z 19016G23KT 2 1/2SM +TSRA BR FEW013 SCT033 OVC044 26/25 A2986 RMK AO2 PK WND 20026/1756 LTG DSNT ALQDS RAB1759 TSB09 P0009 T02610250


Station Type Date Time Source
KSGR Decoded METAR 2019/08/25 18:09 UTC NOAA

Station name not available
Aug 25, 2019 - 02:09 PM EDT / 2019.08.25 1809 UTC
Wind: from the S (190 degrees) at 18 MPH (16 KT) gusting to 26 MPH (23 KT):0
Visibility: 2 1/2 mile(s):0
Sky conditions: overcast
Weather: heavy rain with thunder; mist; Lightning observed
Precipitation last hour: 0.09 inches
Temperature: 79.0 F (26.1 C)
Dew Point: 77.0 F (25.0 C)
Relative Humidity: 93%
Pressure (altimeter): 29.86 in. Hg (1011 hPa)
ob: KSGR 251809Z 19016G23KT 2 1/2SM +TSRA BR FEW013 SCT033 OVC044 26/25 A2986 RMK AO2 PK WND 20026/1756 LTG DSNT ALQDS RAB1759 TSB09 P0009 T02610250
cycle: 18

Station Type Date Time Source
KSGR TAF 2019/08/25 18:24 UTC NOAA

TAF KSGR 251720Z 2518/2618 VRB03KT P6SM VCTS BKN040CB OVC090
TEMPO 2518/2522 VRB30KT 1/4SM +TSRA OVC025CB
FM260100 17007KT P6SM SCT050 BKN250
FM260900 19003KT P6SM SCT015
FM261300 20006KT P6SM BKN025
FM261500 20007KT P6SM VCSH SCT030

Example: see airport list